Fort Chipewyan, Canada
Current Conditions -  °F | °C
As of 9:00 PM on Friday 24 Oct 2014 (Local Time) from CYPY Reporting Station
Overcast Overcast  
Wind Chill: -7°   Ceiling: 3200
Heat Index: -2°   Visibility: 9mi
Dew Point: -3°   Wind: 9mph
Humidity: 93%   Direction: 280°W
Pressure: 29.75"   Gusts: NA
Location:  58.71°N, 111.15°W
Report Text: CYPY 250300Z AUTO 28008KT 9SM OVC032 M02/M03 A2975 RMK SLP090
Loading
Personal Weather Stations






























Interactive Weather Map
Tropical Storm Tracking
New forecast layout! Learn more

10-Day Weather Forecast

Advertisements
Track Severe Weather on mobile